WetterOnline ( https://www.wetteronline.de )

Wetter aktuell Passo Pordoi

Aktuelles Wetter: Paganella (2129m)

6-stündlich | Neueste Meldungen
Ortszeit Temperatur Wetter
Fr, 18.09. 14:00 11.6° C leicht bewölkt
Fr, 18.09. 8:00 9.2° C wolkenlos
Fr, 18.09. 2:00 8.8° C wolkenlos
Do, 17.09. 20:00 11.0° C leicht bewölkt
Do, 17.09. 14:00 11.8° C leicht bewölkt
Do, 17.09. 8:00 8.4° C leicht bewölkt
Do, 17.09. 2:00 9.4° C wolkenlos
Mi, 16.09. 20:00 11.0° C leichte Gewitter
Ortszeit Temperatur Wetter
Fr, 18.09. 16:00 12.0° C leicht bewölkt
Fr, 18.09. 15:55 12° C leicht bewölkt
Fr, 18.09. 15:00 12.0° C leicht bewölkt
Fr, 18.09. 14:55 12° C leicht bewölkt
Fr, 18.09. 14:00 11.6° C leicht bewölkt
Fr, 18.09. 13:55 12° C leicht bewölkt
Fr, 18.09. 13:00 11.2° C leicht bewölkt
Fr, 18.09. 12:55 11° C leicht bewölkt
Fr, 18.09. 12:00 11.0° C leicht bewölkt
Ortszeit Relative Feuchte Sichtweite
Fr, 18.09. 14:00 84% 40 km
Fr, 18.09. 8:00 84% 30 km
Fr, 18.09. 2:00 86% 30 km
Do, 17.09. 20:00 65% 40 km
Do, 17.09. 14:00 58% 40 km
Do, 17.09. 8:00 66% 30 km
Do, 17.09. 2:00 59% 30 km
Mi, 16.09. 20:00 84% 20 km
Ortszeit Relative Feuchte Sichtweite
Fr, 18.09. 16:00 68% 30 km
Fr, 18.09. 15:55 67% >10 km
Fr, 18.09. 15:00 76% 30 km
Fr, 18.09. 14:55 77% >10 km
Fr, 18.09. 14:00 84% 40 km
Fr, 18.09. 13:55 82% >10 km
Fr, 18.09. 13:00 82% 30 km
Fr, 18.09. 12:55 82% >10 km
Fr, 18.09. 12:00 75% 30 km
Ortszeit Niederschlagsmenge Niederschlagsart
Fr, 18.09. 14:00 0.0 l/m2 in 6 Std. -
Fr, 18.09. 8:00 0.0 l/m2 in 12 Std. -
Fr, 18.09. 2:00 0.0 l/m2 in 6 Std. -
Do, 17.09. 20:00 0.0 l/m2 in 12 Std. -
Do, 17.09. 14:00 0.0 l/m2 in 6 Std. -
Do, 17.09. 8:00 2 l/m2 in 12 Std. -
Do, 17.09. 2:00 2 l/m2 in 6 Std. Gewitter
Mi, 16.09. 20:00 0.0 l/m2 in 12 Std. Gewitter
Ortszeit Niederschlagsmenge Niederschlagsart
Fr, 18.09. 16:00 keine Meldung -
Fr, 18.09. 15:55 keine Meldung -
Fr, 18.09. 15:00 keine Meldung -
Fr, 18.09. 14:55 keine Meldung -
Fr, 18.09. 14:00 keine Meldung -
Fr, 18.09. 13:55 keine Meldung -
Fr, 18.09. 13:00 keine Meldung -
Fr, 18.09. 12:55 keine Meldung -
Fr, 18.09. 12:00 keine Meldung -
Ortszeit Stärke Spitze Richtung
km/h Bft. km/h Grad Sektor
Fr, 18.09. 14:00 6 1 - 10° N
Fr, 18.09. 8:00 4 1 - 30° NO
Fr, 18.09. 2:00 9 2 - 360° N
Do, 17.09. 20:00 9 2 - 360° N
Do, 17.09. 14:00 13 3 - 360° N
Do, 17.09. 8:00 28 4 - 360° N
Do, 17.09. 2:00 15 3 - 350° N
Mi, 16.09. 20:00 9 2 - 230° SW
Ortszeit Stärke Spitze Richtung
km/h Bft. km/h Grad Sektor
Fr, 18.09. 16:00 6 1 - 20° N
Fr, 18.09. 15:55 6 1 - 20° N
Fr, 18.09. 15:00 4 1 - 20° N
Fr, 18.09. 14:55 4 1 - 20° N
Fr, 18.09. 14:00 6 1 - 10° N
Fr, 18.09. 13:55 6 1 - 10° N
Fr, 18.09. 13:00 0 0 - - -
Fr, 18.09. 12:55 0 0 - - -
Fr, 18.09. 12:00 4 1 - uml. uml.
Ortszeit Untergrenze Bedeckung Gattung
total tief tief mittel hoch
Fr, 18.09. 14:00 300 m 4/8 3/8 Cu Ac Ci
Fr, 18.09. 8:00 - 0/8 0/8 - - -
Fr, 18.09. 2:00 - 0/8 0/8 - - -
Do, 17.09. 20:00 1800 m 3/8 3/8 - Ac -
Do, 17.09. 14:00 1800 m 4/8 1/8 - Ac Ci
Do, 17.09. 8:00 900 m 2/8 2/8 Sc - -
Do, 17.09. 2:00 - 0/8 0/8 - - -
Mi, 16.09. 20:00 900 m 5/8 5/8 Cb - -
Ortszeit Bedeckungsgrad in Achtel und Wolkenuntergrenze
Fr, 18.09. 16:00 2(300m)
Fr, 18.09. 15:55 1-2(300m)
Fr, 18.09. 15:00 3(300m)
Fr, 18.09. 14:55 3-4(300m)
Fr, 18.09. 14:00 3(300m)
Fr, 18.09. 13:55 3-4(300m)
Fr, 18.09. 13:00 3(450m)
Fr, 18.09. 12:55 3-4(450m)
Fr, 18.09. 12:00 3(450m)
Ortszeit Stationsdruck (hPa) Tendenz (hPa in 3 Std.)
Fr, 18.09. 14:00 795 + 0,1
Fr, 18.09. 8:00 793 + 0,2
Fr, 18.09. 2:00 794 0,0
Do, 17.09. 20:00 793 + 0,2
Do, 17.09. 14:00 793 + 0,6
Do, 17.09. 8:00 792 + 0,6
Do, 17.09. 2:00 792 - 0,8
Mi, 16.09. 20:00 792 - 0,5
Ortszeit Stationsdruck (hPa) Tendenz (hPa in 3 Std.)
Fr, 18.09. 16:00 795 - 0,1
Fr, 18.09. 15:55 - keine Meldung
Fr, 18.09. 15:00 795 0,0
Fr, 18.09. 14:55 - keine Meldung
Fr, 18.09. 14:00 795 + 0,1
Fr, 18.09. 13:55 - keine Meldung
Fr, 18.09. 13:00 795 + 1,0
Fr, 18.09. 12:55 - keine Meldung
Fr, 18.09. 12:00 795 + 1,2
Ortszeit Schneehöhe (cm)
Fr, 18.09. 14:00 -
Fr, 18.09. 8:00 0
Fr, 18.09. 2:00 -
Do, 17.09. 20:00 -
Do, 17.09. 14:00 -
Do, 17.09. 8:00 0
Do, 17.09. 2:00 -
Mi, 16.09. 20:00 -
Ortszeit Schneehöhe (cm)
Fr, 18.09. 16:00 -
Fr, 18.09. 15:55 -
Fr, 18.09. 15:00 -
Fr, 18.09. 14:55 -
Fr, 18.09. 14:00 -
Fr, 18.09. 13:55 -
Fr, 18.09. 13:00 -
Fr, 18.09. 12:55 -
Fr, 18.09. 12:00 -
Link zu dieser Seite / Seite empfehlen

Das Wetter in ...